sensor_id;sensor_type;location;lat;lon;timestamp;temperature;humidity
51793;DHT22;37850;53.178;6.376;2022-10-18T00:00:38;13.40;99.90
51793;DHT22;37850;53.178;6.376;2022-10-18T00:03:04;13.40;99.90
51793;DHT22;37850;53.178;6.376;2022-10-18T00:05:30;13.30;99.90
51793;DHT22;37850;53.178;6.376;2022-10-18T00:07:56;13.40;99.90
51793;DHT22;37850;53.178;6.376;2022-10-18T00:10:22;13.30;99.90
51793;DHT22;37850;53.178;6.376;2022-10-18T00:12:50;13.30;99.90
51793;DHT22;37850;53.178;6.376;2022-10-18T00:15:16;13.30;99.90
51793;DHT22;37850;53.178;6.376;2022-10-18T00:17:42;13.30;99.90
51793;DHT22;37850;53.178;6.376;2022-10-18T00:20:08;13.30;99.90
51793;DHT22;37850;53.178;6.376;2022-10-18T00:22:36;13.30;99.90
51793;DHT22;37850;53.178;6.376;2022-10-18T00:25:02;13.30;99.90
51793;DHT22;37850;53.178;6.376;2022-10-18T00:27:29;13.20;99.90
51793;DHT22;37850;53.178;6.376;2022-10-18T00:29:55;13.20;99.90
51793;DHT22;37850;53.178;6.376;2022-10-18T00:32:21;13.20;99.90
51793;DHT22;37850;53.178;6.376;2022-10-18T00:34:47;13.20;99.90
51793;DHT22;37850;53.178;6.376;2022-10-18T00:37:13;13.20;99.90
51793;DHT22;37850;53.178;6.376;2022-10-18T00:39:38;13.20;99.90
51793;DHT22;37850;53.178;6.376;2022-10-18T00:42:04;13.20;99.90
51793;DHT22;37850;53.178;6.376;2022-10-18T00:47:06;13.20;99.90
51793;DHT22;37850;53.178;6.376;2022-10-18T00:49:35;13.20;99.90
51793;DHT22;37850;53.178;6.376;2022-10-18T00:52:08;13.20;99.90
51793;DHT22;37850;53.178;6.376;2022-10-18T00:54:38;13.20;99.90
51793;DHT22;37850;53.178;6.376;2022-10-18T00:57:05;13.20;99.90
51793;DHT22;37850;53.178;6.376;2022-10-18T00:59:32;13.10;99.90
51793;DHT22;37850;53.178;6.376;2022-10-18T01:01:58;13.10;99.90
51793;DHT22;37850;53.178;6.376;2022-10-18T01:04:24;13.10;99.90
51793;DHT22;37850;53.178;6.376;2022-10-18T01:09:45;13.10;99.90
51793;DHT22;37850;53.178;6.376;2022-10-18T01:12:46;13.10;99.90
51793;DHT22;37850;53.178;6.376;2022-10-18T01:15:32;13.10;99.90
51793;DHT22;37850;53.178;6.376;2022-10-18T01:28:56;13.00;99.90
51793;DHT22;37850;53.178;6.376;2022-10-18T01:31:49;13.00;99.90
51793;DHT22;37850;53.178;6.376;2022-10-18T01:34:17;12.90;99.90
51793;DHT22;37850;53.178;6.376;2022-10-18T01:36:48;12.90;99.90
51793;DHT22;37850;53.178;6.376;2022-10-18T01:39:19;12.90;99.90
51793;DHT22;37850;53.178;6.376;2022-10-18T01:41:48;13.10;99.90
51793;DHT22;37850;53.178;6.376;2022-10-18T01:44:20;12.90;99.90
51793;DHT22;37850;53.178;6.376;2022-10-18T01:46:46;12.90;99.90
51793;DHT22;37850;53.178;6.376;2022-10-18T01:49:12;13.00;99.90
51793;DHT22;37850;53.178;6.376;2022-10-18T01:51:38;12.90;99.90
51793;DHT22;37850;53.178;6.376;2022-10-18T01:54:04;13.00;99.90
51793;DHT22;37850;53.178;6.376;2022-10-18T01:56:35;13.00;99.90
51793;DHT22;37850;53.178;6.376;2022-10-18T02:07:22;13.00;99.90
51793;DHT22;37850;53.178;6.376;2022-10-18T02:10:07;13.00;99.90
51793;DHT22;37850;53.178;6.376;2022-10-18T02:12:36;13.00;99.90
51793;DHT22;37850;53.178;6.376;2022-10-18T02:15:05;13.00;99.90
51793;DHT22;37850;53.178;6.376;2022-10-18T02:17:32;13.00;99.90
51793;DHT22;37850;53.178;6.376;2022-10-18T02:19:59;13.30;99.90
51793;DHT22;37850;53.178;6.376;2022-10-18T02:22:28;13.10;99.90
51793;DHT22;37850;53.178;6.376;2022-10-18T02:24:58;13.00;99.90
51793;DHT22;37850;53.178;6.376;2022-10-18T02:27:26;13.00;99.90
51793;DHT22;37850;53.178;6.376;2022-10-18T02:29:52;13.00;99.90
51793;DHT22;37850;53.178;6.376;2022-10-18T02:32:38;13.10;99.90
51793;DHT22;37850;53.178;6.376;2022-10-18T02:35:25;13.10;99.90
51793;DHT22;37850;53.178;6.376;2022-10-18T02:37:53;13.10;99.90
51793;DHT22;37850;53.178;6.376;2022-10-18T02:40:22;13.10;99.90
51793;DHT22;37850;53.178;6.376;2022-10-18T02:42:52;13.10;99.90
51793;DHT22;37850;53.178;6.376;2022-10-18T02:45:18;13.10;99.90
51793;DHT22;37850;53.178;6.376;2022-10-18T02:47:44;13.10;99.90
51793;DHT22;37850;53.178;6.376;2022-10-18T02:50:10;13.10;99.90
51793;DHT22;37850;53.178;6.376;2022-10-18T02:52:36;13.10;99.90
51793;DHT22;37850;53.178;6.376;2022-10-18T02:55:02;13.00;99.90
51793;DHT22;37850;53.178;6.376;2022-10-18T02:57:28;13.10;99.90
51793;DHT22;37850;53.178;6.376;2022-10-18T02:59:55;13.10;99.90
51793;DHT22;37850;53.178;6.376;2022-10-18T03:02:21;13.00;99.90
51793;DHT22;37850;53.178;6.376;2022-10-18T03:04:47;13.00;99.90
51793;DHT22;37850;53.178;6.376;2022-10-18T03:07:12;13.00;99.90
51793;DHT22;37850;53.178;6.376;2022-10-18T03:09:38;13.00;99.90
51793;DHT22;37850;53.178;6.376;2022-10-18T03:12:04;13.10;99.90
51793;DHT22;37850;53.178;6.376;2022-10-18T03:14:29;13.00;99.90
51793;DHT22;37850;53.178;6.376;2022-10-18T03:16:55;13.00;99.90
51793;DHT22;37850;53.178;6.376;2022-10-18T03:19:21;13.00;99.90
51793;DHT22;37850;53.178;6.376;2022-10-18T03:21:47;13.00;99.90
51793;DHT22;37850;53.178;6.376;2022-10-18T03:24:12;13.00;99.90
51793;DHT22;37850;53.178;6.376;2022-10-18T03:26:38;13.00;99.90
51793;DHT22;37850;53.178;6.376;2022-10-18T03:29:04;13.00;99.90
51793;DHT22;37850;53.178;6.376;2022-10-18T03:31:30;13.00;99.90
51793;DHT22;37850;53.178;6.376;2022-10-18T03:33:57;13.00;99.90
51793;DHT22;37850;53.178;6.376;2022-10-18T03:36:23;13.00;99.90
51793;DHT22;37850;53.178;6.376;2022-10-18T03:38:48;13.00;99.90
51793;DHT22;37850;53.178;6.376;2022-10-18T03:41:16;12.90;99.90
51793;DHT22;37850;53.178;6.376;2022-10-18T03:43:42;12.90;99.90
51793;DHT22;37850;53.178;6.376;2022-10-18T03:46:08;13.00;99.90
51793;DHT22;37850;53.178;6.376;2022-10-18T03:48:33;12.90;99.90
51793;DHT22;37850;53.178;6.376;2022-10-18T03:50:59;12.90;99.90
51793;DHT22;37850;53.178;6.376;2022-10-18T03:53:25;12.90;99.90
51793;DHT22;37850;53.178;6.376;2022-10-18T03:55:54;12.80;99.90
51793;DHT22;37850;53.178;6.376;2022-10-18T03:58:21;12.90;99.90
51793;DHT22;37850;53.178;6.376;2022-10-18T04:00:51;12.80;99.90
51793;DHT22;37850;53.178;6.376;2022-10-18T04:03:18;12.80;99.90
51793;DHT22;37850;53.178;6.376;2022-10-18T04:05:45;12.80;99.90
51793;DHT22;37850;53.178;6.376;2022-10-18T04:08:11;12.80;99.90
51793;DHT22;37850;53.178;6.376;2022-10-18T04:10:37;12.80;99.90
51793;DHT22;37850;53.178;6.376;2022-10-18T04:13:04;12.80;99.90
51793;DHT22;37850;53.178;6.376;2022-10-18T04:15:30;12.70;99.90
51793;DHT22;37850;53.178;6.376;2022-10-18T04:17:56;12.70;99.90
51793;DHT22;37850;53.178;6.376;2022-10-18T04:20:22;12.70;99.90
51793;DHT22;37850;53.178;6.376;2022-10-18T04:22:48;12.60;99.90
51793;DHT22;37850;53.178;6.376;2022-10-18T04:25:14;12.60;99.90
51793;DHT22;37850;53.178;6.376;2022-10-18T04:27:40;12.60;99.90
51793;DHT22;37850;53.178;6.376;2022-10-18T04:30:06;12.60;99.90
51793;DHT22;37850;53.178;6.376;2022-10-18T04:32:33;12.60;99.90
51793;DHT22;37850;53.178;6.376;2022-10-18T04:35:03;12.60;99.90
51793;DHT22;37850;53.178;6.376;2022-10-18T04:37:29;12.50;99.90
51793;DHT22;37850;53.178;6.376;2022-10-18T04:39:55;12.70;99.90
51793;DHT22;37850;53.178;6.376;2022-10-18T04:42:21;12.50;99.90
51793;DHT22;37850;53.178;6.376;2022-10-18T04:44:47;12.50;99.90
51793;DHT22;37850;53.178;6.376;2022-10-18T04:47:13;12.50;99.90
51793;DHT22;37850;53.178;6.376;2022-10-18T04:49:39;12.40;99.90
51793;DHT22;37850;53.178;6.376;2022-10-18T04:52:04;12.40;99.90
51793;DHT22;37850;53.178;6.376;2022-10-18T04:54:30;12.40;99.90
51793;DHT22;37850;53.178;6.376;2022-10-18T04:56:56;12.40;99.90
51793;DHT22;37850;53.178;6.376;2022-10-18T04:59:21;12.40;99.90
51793;DHT22;37850;53.178;6.376;2022-10-18T05:01:47;12.40;99.90
51793;DHT22;37850;53.178;6.376;2022-10-18T05:04:13;12.40;99.90
51793;DHT22;37850;53.178;6.376;2022-10-18T05:06:39;12.40;99.90
51793;DHT22;37850;53.178;6.376;2022-10-18T05:09:05;12.40;99.90
51793;DHT22;37850;53.178;6.376;2022-10-18T05:11:30;12.40;99.90
51793;DHT22;37850;53.178;6.376;2022-10-18T05:13:56;12.40;99.90
51793;DHT22;37850;53.178;6.376;2022-10-18T05:16:22;12.30;99.90
51793;DHT22;37850;53.178;6.376;2022-10-18T05:18:48;12.30;99.90
51793;DHT22;37850;53.178;6.376;2022-10-18T05:21:13;12.30;99.90
51793;DHT22;37850;53.178;6.376;2022-10-18T05:23:39;12.30;99.90
51793;DHT22;37850;53.178;6.376;2022-10-18T05:26:06;12.30;99.90
51793;DHT22;37850;53.178;6.376;2022-10-18T05:28:33;12.30;99.90
51793;DHT22;37850;53.178;6.376;2022-10-18T05:31:00;12.30;99.90
51793;DHT22;37850;53.178;6.376;2022-10-18T05:33:27;12.20;99.90
51793;DHT22;37850;53.178;6.376;2022-10-18T05:35:53;12.20;99.90
51793;DHT22;37850;53.178;6.376;2022-10-18T05:38:19;12.20;99.90
51793;DHT22;37850;53.178;6.376;2022-10-18T05:40:45;12.20;99.90
51793;DHT22;37850;53.178;6.376;2022-10-18T05:43:10;12.10;99.90
51793;DHT22;37850;53.178;6.376;2022-10-18T05:45:36;12.10;99.90
51793;DHT22;37850;53.178;6.376;2022-10-18T05:48:02;12.00;99.90
51793;DHT22;37850;53.178;6.376;2022-10-18T05:50:30;12.00;99.90
51793;DHT22;37850;53.178;6.376;2022-10-18T05:52:56;11.90;99.90
51793;DHT22;37850;53.178;6.376;2022-10-18T05:55:22;11.90;99.90
51793;DHT22;37850;53.178;6.376;2022-10-18T05:57:49;11.90;99.90
51793;DHT22;37850;53.178;6.376;2022-10-18T06:00:16;11.80;99.90
51793;DHT22;37850;53.178;6.376;2022-10-18T06:02:42;11.80;99.90
51793;DHT22;37850;53.178;6.376;2022-10-18T06:05:08;11.80;99.90
51793;DHT22;37850;53.178;6.376;2022-10-18T06:07:34;11.80;99.90
51793;DHT22;37850;53.178;6.376;2022-10-18T06:09:59;11.70;99.90
51793;DHT22;37850;53.178;6.376;2022-10-18T06:12:25;11.70;99.90
51793;DHT22;37850;53.178;6.376;2022-10-18T06:14:51;11.60;99.90
51793;DHT22;37850;53.178;6.376;2022-10-18T06:17:16;11.60;99.90
51793;DHT22;37850;53.178;6.376;2022-10-18T06:19:42;11.60;99.90
51793;DHT22;37850;53.178;6.376;2022-10-18T06:22:09;11.60;99.90
51793;DHT22;37850;53.178;6.376;2022-10-18T06:24:35;11.60;99.90
51793;DHT22;37850;53.178;6.376;2022-10-18T06:27:01;11.60;99.90
51793;DHT22;37850;53.178;6.376;2022-10-18T06:29:33;11.60;99.90
51793;DHT22;37850;53.178;6.376;2022-10-18T06:31:59;11.50;99.90
51793;DHT22;37850;53.178;6.376;2022-10-18T06:34:25;11.60;99.90
51793;DHT22;37850;53.178;6.376;2022-10-18T06:36:50;11.40;99.90
51793;DHT22;37850;53.178;6.376;2022-10-18T06:39:16;11.40;99.90
51793;DHT22;37850;53.178;6.376;2022-10-18T06:41:42;11.40;99.90
51793;DHT22;37850;53.178;6.376;2022-10-18T06:44:08;11.30;99.90
51793;DHT22;37850;53.178;6.376;2022-10-18T06:46:42;11.60;99.90
51793;DHT22;37850;53.178;6.376;2022-10-18T06:49:09;11.30;99.90
51793;DHT22;37850;53.178;6.376;2022-10-18T06:51:35;11.30;99.90
51793;DHT22;37850;53.178;6.376;2022-10-18T06:54:02;11.30;99.90
51793;DHT22;37850;53.178;6.376;2022-10-18T06:56:28;11.30;99.90
51793;DHT22;37850;53.178;6.376;2022-10-18T06:58:54;11.30;99.90
51793;DHT22;37850;53.178;6.376;2022-10-18T07:01:20;11.30;99.90
51793;DHT22;37850;53.178;6.376;2022-10-18T07:03:48;11.20;99.90
51793;DHT22;37850;53.178;6.376;2022-10-18T07:06:17;11.20;99.90
51793;DHT22;37850;53.178;6.376;2022-10-18T07:08:43;11.20;99.90
51793;DHT22;37850;53.178;6.376;2022-10-18T07:11:15;11.20;99.90
51793;DHT22;37850;53.178;6.376;2022-10-18T07:13:41;11.30;99.90
51793;DHT22;37850;53.178;6.376;2022-10-18T07:16:09;11.20;99.90
51793;DHT22;37850;53.178;6.376;2022-10-18T07:18:37;11.20;99.90
51793;DHT22;37850;53.178;6.376;2022-10-18T07:21:06;11.20;99.90
51793;DHT22;37850;53.178;6.376;2022-10-18T07:23:37;11.20;99.90
51793;DHT22;37850;53.178;6.376;2022-10-18T07:26:17;11.20;99.90
51793;DHT22;37850;53.178;6.376;2022-10-18T07:28:45;11.30;99.90
51793;DHT22;37850;53.178;6.376;2022-10-18T07:31:11;11.20;99.90
51793;DHT22;37850;53.178;6.376;2022-10-18T07:33:38;11.30;99.90
51793;DHT22;37850;53.178;6.376;2022-10-18T07:36:06;11.30;99.90
51793;DHT22;37850;53.178;6.376;2022-10-18T07:38:34;11.30;99.90
51793;DHT22;37850;53.178;6.376;2022-10-18T07:41:01;11.30;99.90
51793;DHT22;37850;53.178;6.376;2022-10-18T07:43:28;11.30;99.90
51793;DHT22;37850;53.178;6.376;2022-10-18T07:45:54;11.40;99.90
51793;DHT22;37850;53.178;6.376;2022-10-18T07:48:21;11.40;99.90
51793;DHT22;37850;53.178;6.376;2022-10-18T07:50:46;11.40;99.90
51793;DHT22;37850;53.178;6.376;2022-10-18T07:53:12;11.40;99.90
51793;DHT22;37850;53.178;6.376;2022-10-18T07:55:38;11.50;99.90
51793;DHT22;37850;53.178;6.376;2022-10-18T07:58:04;11.50;99.90
51793;DHT22;37850;53.178;6.376;2022-10-18T08:00:30;11.60;99.90
51793;DHT22;37850;53.178;6.376;2022-10-18T08:02:56;11.70;99.90
51793;DHT22;37850;53.178;6.376;2022-10-18T08:05:23;11.70;99.90
51793;DHT22;37850;53.178;6.376;2022-10-18T08:07:48;11.70;99.90
51793;DHT22;37850;53.178;6.376;2022-10-18T08:10:15;11.80;99.90
51793;DHT22;37850;53.178;6.376;2022-10-18T08:12:41;11.90;99.90
51793;DHT22;37850;53.178;6.376;2022-10-18T08:15:07;11.90;99.90
51793;DHT22;37850;53.178;6.376;2022-10-18T08:17:33;12.00;99.90
51793;DHT22;37850;53.178;6.376;2022-10-18T08:19:58;12.10;99.90
51793;DHT22;37850;53.178;6.376;2022-10-18T08:22:24;12.10;99.90
51793;DHT22;37850;53.178;6.376;2022-10-18T08:24:50;12.20;99.90
51793;DHT22;37850;53.178;6.376;2022-10-18T08:27:16;12.30;99.90
51793;DHT22;37850;53.178;6.376;2022-10-18T08:29:41;12.30;99.90
51793;DHT22;37850;53.178;6.376;2022-10-18T08:32:07;12.40;99.90
51793;DHT22;37850;53.178;6.376;2022-10-18T08:34:34;12.50;99.90
51793;DHT22;37850;53.178;6.376;2022-10-18T08:37:00;12.50;99.90
51793;DHT22;37850;53.178;6.376;2022-10-18T08:39:26;12.60;99.90
51793;DHT22;37850;53.178;6.376;2022-10-18T08:44:50;12.70;99.90
51793;DHT22;37850;53.178;6.376;2022-10-18T08:47:22;12.80;99.90
51793;DHT22;37850;53.178;6.376;2022-10-18T08:49:59;12.90;99.90
51793;DHT22;37850;53.178;6.376;2022-10-18T08:57:51;13.10;99.90
51793;DHT22;37850;53.178;6.376;2022-10-18T09:00:19;13.10;99.90
51793;DHT22;37850;53.178;6.376;2022-10-18T09:08:19;13.30;99.90
51793;DHT22;37850;53.178;6.376;2022-10-18T09:16:27;13.40;99.90
51793;DHT22;37850;53.178;6.376;2022-10-18T09:19:05;13.50;99.90
51793;DHT22;37850;53.178;6.376;2022-10-18T09:21:51;13.60;99.90
51793;DHT22;37850;53.178;6.376;2022-10-18T09:24:25;13.60;99.90
51793;DHT22;37850;53.178;6.376;2022-10-18T09:26:59;13.70;99.90
51793;DHT22;37850;53.178;6.376;2022-10-18T09:32:49;13.80;99.90
51793;DHT22;37850;53.178;6.376;2022-10-18T09:35:20;13.90;99.90
51793;DHT22;37850;53.178;6.376;2022-10-18T09:37:48;13.90;99.90
51793;DHT22;37850;53.178;6.376;2022-10-18T09:40:21;13.90;99.90
51793;DHT22;37850;53.178;6.376;2022-10-18T09:43:05;14.00;99.90
51793;DHT22;37850;53.178;6.376;2022-10-18T09:45:35;14.00;99.90
51793;DHT22;37850;53.178;6.376;2022-10-18T09:51:23;14.00;99.90
51793;DHT22;37850;53.178;6.376;2022-10-18T09:58:43;14.10;99.90
51793;DHT22;37850;53.178;6.376;2022-10-18T10:01:18;14.10;99.90
51793;DHT22;37850;53.178;6.376;2022-10-18T10:03:44;14.10;99.90
51793;DHT22;37850;53.178;6.376;2022-10-18T10:09:05;14.20;99.90
51793;DHT22;37850;53.178;6.376;2022-10-18T10:11:35;14.20;99.90
51793;DHT22;37850;53.178;6.376;2022-10-18T10:14:07;14.20;99.90
51793;DHT22;37850;53.178;6.376;2022-10-18T10:16:42;14.20;99.90
51793;DHT22;37850;53.178;6.376;2022-10-18T10:19:27;14.20;99.90
51793;DHT22;37850;53.178;6.376;2022-10-18T10:27:04;14.30;99.90
51793;DHT22;37850;53.178;6.376;2022-10-18T10:32:15;14.30;99.90
51793;DHT22;37850;53.178;6.376;2022-10-18T10:34:41;14.30;99.90
51793;DHT22;37850;53.178;6.376;2022-10-18T10:37:26;14.30;99.90
51793;DHT22;37850;53.178;6.376;2022-10-18T10:40:16;14.30;99.90
51793;DHT22;37850;53.178;6.376;2022-10-18T10:46:01;14.30;99.90
51793;DHT22;37850;53.178;6.376;2022-10-18T10:48:25;14.50;99.90
51793;DHT22;37850;53.178;6.376;2022-10-18T10:53:49;14.60;99.90
51793;DHT22;37850;53.178;6.376;2022-10-18T10:56:27;14.60;99.90
51793;DHT22;37850;53.178;6.376;2022-10-18T10:58:56;14.60;99.90
51793;DHT22;37850;53.178;6.376;2022-10-18T11:01:30;14.60;99.90
51793;DHT22;37850;53.178;6.376;2022-10-18T11:04:02;14.70;99.90
51793;DHT22;37850;53.178;6.376;2022-10-18T11:09:44;14.80;99.90
51793;DHT22;37850;53.178;6.376;2022-10-18T11:15:02;14.90;99.90
51793;DHT22;37850;53.178;6.376;2022-10-18T11:20:55;14.90;99.90
51793;DHT22;37850;53.178;6.376;2022-10-18T11:23:28;14.90;99.90
51793;DHT22;37850;53.178;6.376;2022-10-18T11:41:57;15.30;99.90
51793;DHT22;37850;53.178;6.376;2022-10-18T11:44:32;15.40;99.90
51793;DHT22;37850;53.178;6.376;2022-10-18T11:47:17;15.40;99.90
51793;DHT22;37850;53.178;6.376;2022-10-18T11:55:29;15.40;99.90
51793;DHT22;37850;53.178;6.376;2022-10-18T12:05:56;15.10;99.90
51793;DHT22;37850;53.178;6.376;2022-10-18T12:08:37;15.10;99.90
51793;DHT22;37850;53.178;6.376;2022-10-18T12:11:09;15.10;99.90
51793;DHT22;37850;53.178;6.376;2022-10-18T12:13:45;15.10;99.90
51793;DHT22;37850;53.178;6.376;2022-10-18T12:16:13;15.10;99.90
51793;DHT22;37850;53.178;6.376;2022-10-18T12:18:52;15.10;99.90
51793;DHT22;37850;53.178;6.376;2022-10-18T12:21:21;15.20;99.90
51793;DHT22;37850;53.178;6.376;2022-10-18T12:26:28;15.30;99.90
51793;DHT22;37850;53.178;6.376;2022-10-18T12:39:42;15.30;99.90
51793;DHT22;37850;53.178;6.376;2022-10-18T12:42:39;15.40;99.90
51793;DHT22;37850;53.178;6.376;2022-10-18T12:47:39;15.50;99.90
51793;DHT22;37850;53.178;6.376;2022-10-18T12:55:36;15.60;99.90
51793;DHT22;37850;53.178;6.376;2022-10-18T12:58:27;15.60;99.90
51793;DHT22;37850;53.178;6.376;2022-10-18T13:01:03;15.60;99.90
51793;DHT22;37850;53.178;6.376;2022-10-18T13:03:52;15.70;99.90
51793;DHT22;37850;53.178;6.376;2022-10-18T13:06:18;15.70;99.90
51793;DHT22;37850;53.178;6.376;2022-10-18T13:08:44;15.70;99.90
51793;DHT22;37850;53.178;6.376;2022-10-18T13:11:32;15.80;99.90
51793;DHT22;37850;53.178;6.376;2022-10-18T13:14:24;15.80;99.90
51793;DHT22;37850;53.178;6.376;2022-10-18T13:17:20;15.80;99.90
51793;DHT22;37850;53.178;6.376;2022-10-18T13:19:46;15.80;99.90
51793;DHT22;37850;53.178;6.376;2022-10-18T13:25:56;15.80;99.90
51793;DHT22;37850;53.178;6.376;2022-10-18T13:31:48;15.90;99.90
51793;DHT22;37850;53.178;6.376;2022-10-18T13:34:24;15.90;99.90
51793;DHT22;37850;53.178;6.376;2022-10-18T13:37:02;15.80;99.90
51793;DHT22;37850;53.178;6.376;2022-10-18T13:39:29;15.80;99.90
51793;DHT22;37850;53.178;6.376;2022-10-18T13:44:32;15.80;99.90
51793;DHT22;37850;53.178;6.376;2022-10-18T13:52:17;15.60;99.90
51793;DHT22;37850;53.178;6.376;2022-10-18T14:06:21;15.40;99.90
51793;DHT22;37850;53.178;6.376;2022-10-18T14:09:10;15.50;99.90
51793;DHT22;37850;53.178;6.376;2022-10-18T14:12:40;15.40;99.90
51793;DHT22;37850;53.178;6.376;2022-10-18T14:17:36;15.40;99.90
51793;DHT22;37850;53.178;6.376;2022-10-18T14:20:15;15.40;99.90
51793;DHT22;37850;53.178;6.376;2022-10-18T14:25:41;15.40;99.90
51793;DHT22;37850;53.178;6.376;2022-10-18T14:28:21;15.30;99.90
51793;DHT22;37850;53.178;6.376;2022-10-18T14:30:57;15.20;99.90
51793;DHT22;37850;53.178;6.376;2022-10-18T14:33:26;15.20;99.90
51793;DHT22;37850;53.178;6.376;2022-10-18T14:38:57;15.20;99.90
51793;DHT22;37850;53.178;6.376;2022-10-18T14:41:31;15.20;99.90
51793;DHT22;37850;53.178;6.376;2022-10-18T14:44:19;15.20;99.90
51793;DHT22;37850;53.178;6.376;2022-10-18T14:47:40;15.20;99.90
51793;DHT22;37850;53.178;6.376;2022-10-18T14:49:47;15.20;99.90
51793;DHT22;37850;53.178;6.376;2022-10-18T14:52:16;15.20;99.90
51793;DHT22;37850;53.178;6.376;2022-10-18T14:54:42;15.20;99.90
51793;DHT22;37850;53.178;6.376;2022-10-18T14:57:17;15.20;99.90
51793;DHT22;37850;53.178;6.376;2022-10-18T14:59:49;15.10;99.90
51793;DHT22;37850;53.178;6.376;2022-10-18T15:02:25;15.10;99.90
51793;DHT22;37850;53.178;6.376;2022-10-18T15:07:44;15.00;99.90
51793;DHT22;37850;53.178;6.376;2022-10-18T15:10:16;15.00;99.90
51793;DHT22;37850;53.178;6.376;2022-10-18T15:12:43;14.90;99.90
51793;DHT22;37850;53.178;6.376;2022-10-18T15:15:24;14.90;99.90
51793;DHT22;37850;53.178;6.376;2022-10-18T15:17:52;14.80;99.90
51793;DHT22;37850;53.178;6.376;2022-10-18T15:22:46;14.70;99.90
51793;DHT22;37850;53.178;6.376;2022-10-18T15:27:52;14.70;99.90
51793;DHT22;37850;53.178;6.376;2022-10-18T15:30:38;14.70;99.90
51793;DHT22;37850;53.178;6.376;2022-10-18T15:33:15;14.70;99.90
51793;DHT22;37850;53.178;6.376;2022-10-18T15:35:43;14.70;99.90
51793;DHT22;37850;53.178;6.376;2022-10-18T15:38:24;14.70;99.90
51793;DHT22;37850;53.178;6.376;2022-10-18T15:40:50;14.70;99.90
51793;DHT22;37850;53.178;6.376;2022-10-18T15:45:52;14.70;99.90
51793;DHT22;37850;53.178;6.376;2022-10-18T15:50:49;14.70;99.90
51793;DHT22;37850;53.178;6.376;2022-10-18T15:58:26;14.60;99.90
51793;DHT22;37850;53.178;6.376;2022-10-18T16:00:56;14.50;99.90
51793;DHT22;37850;53.178;6.376;2022-10-18T16:03:23;14.60;99.90
51793;DHT22;37850;53.178;6.376;2022-10-18T16:05:52;14.40;99.90
51793;DHT22;37850;53.178;6.376;2022-10-18T16:08:26;14.40;99.90
51793;DHT22;37850;53.178;6.376;2022-10-18T16:10:57;14.30;99.90
51793;DHT22;37850;53.178;6.376;2022-10-18T16:13:24;14.30;99.90
51793;DHT22;37850;53.178;6.376;2022-10-18T16:15:50;14.30;99.90
51793;DHT22;37850;53.178;6.376;2022-10-18T16:18:18;14.30;99.90
51793;DHT22;37850;53.178;6.376;2022-10-18T16:20:45;14.30;99.90
51793;DHT22;37850;53.178;6.376;2022-10-18T16:25:43;14.20;99.90
51793;DHT22;37850;53.178;6.376;2022-10-18T16:28:13;14.20;99.90
51793;DHT22;37850;53.178;6.376;2022-10-18T16:30:39;14.20;99.90
51793;DHT22;37850;53.178;6.376;2022-10-18T16:33:06;14.10;99.90
51793;DHT22;37850;53.178;6.376;2022-10-18T16:35:32;14.00;99.90
51793;DHT22;37850;53.178;6.376;2022-10-18T16:38:00;14.00;99.90
51793;DHT22;37850;53.178;6.376;2022-10-18T16:40:26;14.00;99.90
51793;DHT22;37850;53.178;6.376;2022-10-18T16:42:52;14.00;99.90
51793;DHT22;37850;53.178;6.376;2022-10-18T16:45:18;14.00;99.90
51793;DHT22;37850;53.178;6.376;2022-10-18T16:47:44;14.00;99.90
51793;DHT22;37850;53.178;6.376;2022-10-18T16:50:16;13.90;99.90
51793;DHT22;37850;53.178;6.376;2022-10-18T16:52:42;14.00;99.90
51793;DHT22;37850;53.178;6.376;2022-10-18T16:55:08;13.90;99.90
51793;DHT22;37850;53.178;6.376;2022-10-18T16:57:41;13.90;99.90
51793;DHT22;37850;53.178;6.376;2022-10-18T17:00:18;13.90;99.90
51793;DHT22;37850;53.178;6.376;2022-10-18T17:02:46;13.90;99.90
51793;DHT22;37850;53.178;6.376;2022-10-18T17:05:12;13.80;99.90
51793;DHT22;37850;53.178;6.376;2022-10-18T17:07:38;13.80;99.90
51793;DHT22;37850;53.178;6.376;2022-10-18T17:10:05;13.80;99.90
51793;DHT22;37850;53.178;6.376;2022-10-18T17:12:30;13.80;99.90
51793;DHT22;37850;53.178;6.376;2022-10-18T17:14:56;13.70;99.90
51793;DHT22;37850;53.178;6.376;2022-10-18T17:17:22;13.70;99.90
51793;DHT22;37850;53.178;6.376;2022-10-18T17:19:47;13.70;99.90
51793;DHT22;37850;53.178;6.376;2022-10-18T17:22:13;13.70;99.90
51793;DHT22;37850;53.178;6.376;2022-10-18T17:24:39;13.90;99.90
51793;DHT22;37850;53.178;6.376;2022-10-18T17:27:04;13.70;99.90
51793;DHT22;37850;53.178;6.376;2022-10-18T17:29:30;13.70;99.90
51793;DHT22;37850;53.178;6.376;2022-10-18T17:31:56;13.60;99.90
51793;DHT22;37850;53.178;6.376;2022-10-18T17:34:22;13.60;99.90
51793;DHT22;37850;53.178;6.376;2022-10-18T17:36:47;13.60;99.90
51793;DHT22;37850;53.178;6.376;2022-10-18T17:39:13;13.60;99.90
51793;DHT22;37850;53.178;6.376;2022-10-18T17:41:39;13.80;99.90
51793;DHT22;37850;53.178;6.376;2022-10-18T17:44:06;13.60;99.90
51793;DHT22;37850;53.178;6.376;2022-10-18T17:46:31;13.50;99.90
51793;DHT22;37850;53.178;6.376;2022-10-18T17:48:57;13.50;99.90
51793;DHT22;37850;53.178;6.376;2022-10-18T17:51:23;13.50;99.90
51793;DHT22;37850;53.178;6.376;2022-10-18T17:53:49;13.50;99.90
51793;DHT22;37850;53.178;6.376;2022-10-18T17:56:15;13.50;99.90
51793;DHT22;37850;53.178;6.376;2022-10-18T17:58:41;13.50;99.90
51793;DHT22;37850;53.178;6.376;2022-10-18T18:01:14;13.50;99.90
51793;DHT22;37850;53.178;6.376;2022-10-18T18:03:40;13.40;99.90
51793;DHT22;37850;53.178;6.376;2022-10-18T18:06:13;13.40;99.90
51793;DHT22;37850;53.178;6.376;2022-10-18T18:08:39;13.40;99.90
51793;DHT22;37850;53.178;6.376;2022-10-18T18:11:05;13.40;99.90
51793;DHT22;37850;53.178;6.376;2022-10-18T18:13:31;13.30;99.90
51793;DHT22;37850;53.178;6.376;2022-10-18T18:15:57;13.30;99.90
51793;DHT22;37850;53.178;6.376;2022-10-18T18:18:23;13.30;99.90
51793;DHT22;37850;53.178;6.376;2022-10-18T18:20:50;13.30;99.90
51793;DHT22;37850;53.178;6.376;2022-10-18T18:23:16;13.30;99.90
51793;DHT22;37850;53.178;6.376;2022-10-18T18:25:42;13.30;99.90
51793;DHT22;37850;53.178;6.376;2022-10-18T18:28:08;13.30;99.90
51793;DHT22;37850;53.178;6.376;2022-10-18T18:30:34;13.20;99.90
51793;DHT22;37850;53.178;6.376;2022-10-18T18:32:59;13.20;99.90
51793;DHT22;37850;53.178;6.376;2022-10-18T18:35:25;13.20;99.90
51793;DHT22;37850;53.178;6.376;2022-10-18T18:37:51;13.20;99.90
51793;DHT22;37850;53.178;6.376;2022-10-18T18:40:16;13.20;99.90
51793;DHT22;37850;53.178;6.376;2022-10-18T18:42:42;13.20;99.90
51793;DHT22;37850;53.178;6.376;2022-10-18T18:45:08;13.20;99.90
51793;DHT22;37850;53.178;6.376;2022-10-18T18:47:34;13.10;99.90
51793;DHT22;37850;53.178;6.376;2022-10-18T18:50:00;13.10;99.90